sensor_id;sensor_type;location;lat;lon;timestamp;temperature;humidity
13606;DHT22;6874;52.084;5.090;2022-12-07T00:02:15;4.40;99.90
13606;DHT22;6874;52.084;5.090;2022-12-07T00:04:40;4.50;99.90
13606;DHT22;6874;52.084;5.090;2022-12-07T00:07:06;4.50;99.90
13606;DHT22;6874;52.084;5.090;2022-12-07T00:09:31;4.40;99.90
13606;DHT22;6874;52.084;5.090;2022-12-07T00:11:57;4.40;99.90
13606;DHT22;6874;52.084;5.090;2022-12-07T00:14:22;4.40;99.90
13606;DHT22;6874;52.084;5.090;2022-12-07T00:16:51;4.40;99.90
13606;DHT22;6874;52.084;5.090;2022-12-07T00:19:17;4.40;99.90
13606;DHT22;6874;52.084;5.090;2022-12-07T00:21:43;4.40;99.90
13606;DHT22;6874;52.084;5.090;2022-12-07T00:24:10;4.40;99.90
13606;DHT22;6874;52.084;5.090;2022-12-07T00:26:38;4.40;99.90
13606;DHT22;6874;52.084;5.090;2022-12-07T00:29:15;4.40;99.90
13606;DHT22;6874;52.084;5.090;2022-12-07T00:31:41;4.40;99.90
13606;DHT22;6874;52.084;5.090;2022-12-07T00:34:12;4.40;99.90
13606;DHT22;6874;52.084;5.090;2022-12-07T00:36:38;4.40;99.90
13606;DHT22;6874;52.084;5.090;2022-12-07T00:39:03;4.40;99.90
13606;DHT22;6874;52.084;5.090;2022-12-07T00:41:29;4.40;99.90
13606;DHT22;6874;52.084;5.090;2022-12-07T00:43:55;4.40;99.90
13606;DHT22;6874;52.084;5.090;2022-12-07T00:46:22;4.40;99.90
13606;DHT22;6874;52.084;5.090;2022-12-07T00:48:50;4.40;99.90
13606;DHT22;6874;52.084;5.090;2022-12-07T00:51:18;4.30;99.90
13606;DHT22;6874;52.084;5.090;2022-12-07T00:53:43;4.40;99.90
13606;DHT22;6874;52.084;5.090;2022-12-07T00:56:12;4.30;99.90
13606;DHT22;6874;52.084;5.090;2022-12-07T00:58:38;4.30;99.90
13606;DHT22;6874;52.084;5.090;2022-12-07T01:01:05;4.30;99.90
13606;DHT22;6874;52.084;5.090;2022-12-07T01:03:32;4.30;99.90
13606;DHT22;6874;52.084;5.090;2022-12-07T01:05:58;4.30;99.90
13606;DHT22;6874;52.084;5.090;2022-12-07T01:08:25;4.20;99.90
13606;DHT22;6874;52.084;5.090;2022-12-07T01:11:03;4.20;99.90
13606;DHT22;6874;52.084;5.090;2022-12-07T01:13:29;4.20;99.90
13606;DHT22;6874;52.084;5.090;2022-12-07T01:15:58;4.20;99.90
13606;DHT22;6874;52.084;5.090;2022-12-07T01:18:26;4.20;99.90
13606;DHT22;6874;52.084;5.090;2022-12-07T01:21:19;4.20;99.90
13606;DHT22;6874;52.084;5.090;2022-12-07T01:23:46;4.20;99.90
13606;DHT22;6874;52.084;5.090;2022-12-07T01:26:14;4.20;99.90
13606;DHT22;6874;52.084;5.090;2022-12-07T01:28:40;4.10;99.90
13606;DHT22;6874;52.084;5.090;2022-12-07T01:31:11;4.10;99.90
13606;DHT22;6874;52.084;5.090;2022-12-07T01:33:38;4.10;99.90
13606;DHT22;6874;52.084;5.090;2022-12-07T01:36:13;4.10;99.90
13606;DHT22;6874;52.084;5.090;2022-12-07T01:38:40;4.10;99.90
13606;DHT22;6874;52.084;5.090;2022-12-07T01:41:05;4.00;99.90
13606;DHT22;6874;52.084;5.090;2022-12-07T01:43:33;4.00;99.90
13606;DHT22;6874;52.084;5.090;2022-12-07T01:45:59;4.00;99.90
13606;DHT22;6874;52.084;5.090;2022-12-07T01:48:38;4.00;99.90
13606;DHT22;6874;52.084;5.090;2022-12-07T01:51:08;4.00;99.90
13606;DHT22;6874;52.084;5.090;2022-12-07T01:53:37;4.00;99.90
13606;DHT22;6874;52.084;5.090;2022-12-07T01:56:05;4.00;99.90
13606;DHT22;6874;52.084;5.090;2022-12-07T01:58:31;3.90;99.90
13606;DHT22;6874;52.084;5.090;2022-12-07T02:00:56;4.00;99.90
13606;DHT22;6874;52.084;5.090;2022-12-07T02:03:29;3.90;99.90
13606;DHT22;6874;52.084;5.090;2022-12-07T02:05:57;3.90;99.90
13606;DHT22;6874;52.084;5.090;2022-12-07T02:08:24;3.90;99.90
13606;DHT22;6874;52.084;5.090;2022-12-07T02:10:50;3.90;99.90
13606;DHT22;6874;52.084;5.090;2022-12-07T02:13:22;3.90;99.90
13606;DHT22;6874;52.084;5.090;2022-12-07T02:18:38;3.80;99.90
13606;DHT22;6874;52.084;5.090;2022-12-07T02:26:39;3.90;99.90
13606;DHT22;6874;52.084;5.090;2022-12-07T02:32:16;3.90;99.90
13606;DHT22;6874;52.084;5.090;2022-12-07T02:34:56;3.90;99.90
13606;DHT22;6874;52.084;5.090;2022-12-07T02:40:06;3.90;99.90
13606;DHT22;6874;52.084;5.090;2022-12-07T02:42:45;3.90;99.90
13606;DHT22;6874;52.084;5.090;2022-12-07T02:45:15;3.90;99.90
13606;DHT22;6874;52.084;5.090;2022-12-07T02:47:43;3.90;99.90
13606;DHT22;6874;52.084;5.090;2022-12-07T02:50:10;3.90;99.90
13606;DHT22;6874;52.084;5.090;2022-12-07T02:52:35;3.90;99.90
13606;DHT22;6874;52.084;5.090;2022-12-07T02:55:01;3.90;99.90
13606;DHT22;6874;52.084;5.090;2022-12-07T03:00:16;3.90;99.90
13606;DHT22;6874;52.084;5.090;2022-12-07T03:03:06;3.90;99.90
13606;DHT22;6874;52.084;5.090;2022-12-07T03:05:47;3.80;99.90
13606;DHT22;6874;52.084;5.090;2022-12-07T03:13:18;3.80;99.90
13606;DHT22;6874;52.084;5.090;2022-12-07T03:16:16;3.80;99.90
13606;DHT22;6874;52.084;5.090;2022-12-07T03:19:10;3.80;99.90
13606;DHT22;6874;52.084;5.090;2022-12-07T03:21:41;3.80;99.90
13606;DHT22;6874;52.084;5.090;2022-12-07T03:24:13;3.70;99.90
13606;DHT22;6874;52.084;5.090;2022-12-07T03:26:44;3.70;99.90
13606;DHT22;6874;52.084;5.090;2022-12-07T03:29:26;3.70;99.90
13606;DHT22;6874;52.084;5.090;2022-12-07T03:32:14;3.70;99.90
13606;DHT22;6874;52.084;5.090;2022-12-07T03:34:49;3.70;99.90
13606;DHT22;6874;52.084;5.090;2022-12-07T03:37:20;3.70;99.90
13606;DHT22;6874;52.084;5.090;2022-12-07T03:40:16;3.60;99.90
13606;DHT22;6874;52.084;5.090;2022-12-07T03:42:44;3.60;99.90
13606;DHT22;6874;52.084;5.090;2022-12-07T03:45:11;3.60;99.90
13606;DHT22;6874;52.084;5.090;2022-12-07T03:48:02;3.60;99.90
13606;DHT22;6874;52.084;5.090;2022-12-07T03:50:43;3.50;99.90
13606;DHT22;6874;52.084;5.090;2022-12-07T03:53:20;3.50;99.90
13606;DHT22;6874;52.084;5.090;2022-12-07T03:55:48;3.50;99.90
13606;DHT22;6874;52.084;5.090;2022-12-07T03:58:17;3.50;99.90
13606;DHT22;6874;52.084;5.090;2022-12-07T04:00:44;3.50;99.90
13606;DHT22;6874;52.084;5.090;2022-12-07T04:03:10;3.50;99.90
13606;DHT22;6874;52.084;5.090;2022-12-07T04:05:36;3.40;99.90
13606;DHT22;6874;52.084;5.090;2022-12-07T04:08:02;3.40;99.90
13606;DHT22;6874;52.084;5.090;2022-12-07T04:10:28;3.40;99.90
13606;DHT22;6874;52.084;5.090;2022-12-07T04:12:54;3.40;99.90
13606;DHT22;6874;52.084;5.090;2022-12-07T04:15:19;3.40;99.90
13606;DHT22;6874;52.084;5.090;2022-12-07T04:17:45;3.40;99.90
13606;DHT22;6874;52.084;5.090;2022-12-07T04:20:11;3.40;99.90
13606;DHT22;6874;52.084;5.090;2022-12-07T04:22:36;3.30;99.90
13606;DHT22;6874;52.084;5.090;2022-12-07T04:25:02;3.30;99.90
13606;DHT22;6874;52.084;5.090;2022-12-07T04:27:28;3.30;99.90
13606;DHT22;6874;52.084;5.090;2022-12-07T04:29:53;3.30;99.90
13606;DHT22;6874;52.084;5.090;2022-12-07T04:32:21;3.30;99.90
13606;DHT22;6874;52.084;5.090;2022-12-07T04:34:46;3.30;99.90
13606;DHT22;6874;52.084;5.090;2022-12-07T04:37:12;3.30;99.90
13606;DHT22;6874;52.084;5.090;2022-12-07T04:39:37;3.20;99.90
13606;DHT22;6874;52.084;5.090;2022-12-07T04:42:03;3.20;99.90
13606;DHT22;6874;52.084;5.090;2022-12-07T04:44:29;3.20;99.90
13606;DHT22;6874;52.084;5.090;2022-12-07T04:46:55;3.20;99.90
13606;DHT22;6874;52.084;5.090;2022-12-07T04:49:23;3.20;99.90
13606;DHT22;6874;52.084;5.090;2022-12-07T04:51:49;3.20;99.90
13606;DHT22;6874;52.084;5.090;2022-12-07T04:54:15;3.20;99.90
13606;DHT22;6874;52.084;5.090;2022-12-07T04:56:41;3.20;99.90
13606;DHT22;6874;52.084;5.090;2022-12-07T04:59:07;3.10;99.90
13606;DHT22;6874;52.084;5.090;2022-12-07T05:01:34;3.10;99.90
13606;DHT22;6874;52.084;5.090;2022-12-07T05:04:00;3.10;99.90
13606;DHT22;6874;52.084;5.090;2022-12-07T05:06:26;3.10;99.90
13606;DHT22;6874;52.084;5.090;2022-12-07T05:08:51;3.10;99.90
13606;DHT22;6874;52.084;5.090;2022-12-07T05:11:17;3.10;99.90
13606;DHT22;6874;52.084;5.090;2022-12-07T05:14:03;3.10;99.90
13606;DHT22;6874;52.084;5.090;2022-12-07T05:16:28;3.00;99.90
13606;DHT22;6874;52.084;5.090;2022-12-07T05:18:54;3.00;99.90
13606;DHT22;6874;52.084;5.090;2022-12-07T05:21:20;3.00;99.90
13606;DHT22;6874;52.084;5.090;2022-12-07T05:23:45;3.00;99.90
13606;DHT22;6874;52.084;5.090;2022-12-07T05:26:11;3.00;99.90
13606;DHT22;6874;52.084;5.090;2022-12-07T05:28:36;3.00;99.90
13606;DHT22;6874;52.084;5.090;2022-12-07T05:31:02;3.00;99.90
13606;DHT22;6874;52.084;5.090;2022-12-07T05:33:28;3.00;99.90
13606;DHT22;6874;52.084;5.090;2022-12-07T05:35:54;3.00;99.90
13606;DHT22;6874;52.084;5.090;2022-12-07T05:38:19;3.00;99.90
13606;DHT22;6874;52.084;5.090;2022-12-07T05:40:45;3.00;99.90
13606;DHT22;6874;52.084;5.090;2022-12-07T05:43:10;3.00;99.90
13606;DHT22;6874;52.084;5.090;2022-12-07T05:45:36;3.00;99.90
13606;DHT22;6874;52.084;5.090;2022-12-07T05:48:01;3.00;99.90
13606;DHT22;6874;52.084;5.090;2022-12-07T05:50:27;2.90;99.90
13606;DHT22;6874;52.084;5.090;2022-12-07T05:52:53;3.00;99.90
13606;DHT22;6874;52.084;5.090;2022-12-07T05:55:19;3.00;99.90
13606;DHT22;6874;52.084;5.090;2022-12-07T05:57:44;3.00;99.90
13606;DHT22;6874;52.084;5.090;2022-12-07T06:00:30;3.00;99.90
13606;DHT22;6874;52.084;5.090;2022-12-07T06:02:55;3.00;99.90
13606;DHT22;6874;52.084;5.090;2022-12-07T06:05:21;3.00;99.90
13606;DHT22;6874;52.084;5.090;2022-12-07T06:07:46;3.00;99.90
13606;DHT22;6874;52.084;5.090;2022-12-07T06:10:12;3.00;99.90
13606;DHT22;6874;52.084;5.090;2022-12-07T06:12:38;3.00;99.90
13606;DHT22;6874;52.084;5.090;2022-12-07T06:15:05;3.00;99.90
13606;DHT22;6874;52.084;5.090;2022-12-07T06:17:31;3.00;99.90
13606;DHT22;6874;52.084;5.090;2022-12-07T06:19:56;3.00;99.90
13606;DHT22;6874;52.084;5.090;2022-12-07T06:22:22;3.00;99.90
13606;DHT22;6874;52.084;5.090;2022-12-07T06:24:47;3.00;99.90
13606;DHT22;6874;52.084;5.090;2022-12-07T06:27:13;3.00;99.90
13606;DHT22;6874;52.084;5.090;2022-12-07T06:29:39;3.00;99.90
13606;DHT22;6874;52.084;5.090;2022-12-07T06:32:05;3.00;99.90
13606;DHT22;6874;52.084;5.090;2022-12-07T06:34:30;3.00;99.90
13606;DHT22;6874;52.084;5.090;2022-12-07T06:36:56;3.00;99.90
13606;DHT22;6874;52.084;5.090;2022-12-07T06:39:25;3.00;99.90
13606;DHT22;6874;52.084;5.090;2022-12-07T06:41:51;3.00;99.90
13606;DHT22;6874;52.084;5.090;2022-12-07T06:44:20;3.00;99.90
13606;DHT22;6874;52.084;5.090;2022-12-07T06:46:47;3.00;99.90
13606;DHT22;6874;52.084;5.090;2022-12-07T06:49:13;3.00;99.90
13606;DHT22;6874;52.084;5.090;2022-12-07T06:51:38;3.00;99.90
13606;DHT22;6874;52.084;5.090;2022-12-07T06:54:10;3.00;99.90
13606;DHT22;6874;52.084;5.090;2022-12-07T06:56:37;3.00;99.90
13606;DHT22;6874;52.084;5.090;2022-12-07T06:59:03;3.00;99.90
13606;DHT22;6874;52.084;5.090;2022-12-07T07:01:29;3.00;99.90
13606;DHT22;6874;52.084;5.090;2022-12-07T07:03:54;3.00;99.90
13606;DHT22;6874;52.084;5.090;2022-12-07T07:06:20;3.00;99.90
13606;DHT22;6874;52.084;5.090;2022-12-07T07:08:45;3.00;99.90
13606;DHT22;6874;52.084;5.090;2022-12-07T07:11:11;3.00;99.90
13606;DHT22;6874;52.084;5.090;2022-12-07T07:13:37;3.00;99.90
13606;DHT22;6874;52.084;5.090;2022-12-07T07:16:03;3.00;99.90
13606;DHT22;6874;52.084;5.090;2022-12-07T07:18:29;3.00;99.90
13606;DHT22;6874;52.084;5.090;2022-12-07T07:20:55;3.00;99.90
13606;DHT22;6874;52.084;5.090;2022-12-07T07:23:21;3.00;99.90
13606;DHT22;6874;52.084;5.090;2022-12-07T07:25:47;3.00;99.90
13606;DHT22;6874;52.084;5.090;2022-12-07T07:28:14;3.00;99.90
13606;DHT22;6874;52.084;5.090;2022-12-07T07:30:39;3.00;99.90
13606;DHT22;6874;52.084;5.090;2022-12-07T07:33:05;2.90;99.90
13606;DHT22;6874;52.084;5.090;2022-12-07T07:35:32;2.90;99.90
13606;DHT22;6874;52.084;5.090;2022-12-07T07:37:59;2.90;99.90
13606;DHT22;6874;52.084;5.090;2022-12-07T07:40:25;2.90;99.90
13606;DHT22;6874;52.084;5.090;2022-12-07T07:42:52;2.90;99.90
13606;DHT22;6874;52.084;5.090;2022-12-07T07:45:19;2.90;99.90
13606;DHT22;6874;52.084;5.090;2022-12-07T07:47:45;2.90;99.90
13606;DHT22;6874;52.084;5.090;2022-12-07T07:50:11;2.90;99.90
13606;DHT22;6874;52.084;5.090;2022-12-07T07:52:36;2.90;99.90
13606;DHT22;6874;52.084;5.090;2022-12-07T07:55:02;2.80;99.90
13606;DHT22;6874;52.084;5.090;2022-12-07T07:57:28;2.80;99.90
13606;DHT22;6874;52.084;5.090;2022-12-07T07:59:54;2.80;99.90
13606;DHT22;6874;52.084;5.090;2022-12-07T08:02:21;2.80;99.90
13606;DHT22;6874;52.084;5.090;2022-12-07T08:04:47;2.80;99.90
13606;DHT22;6874;52.084;5.090;2022-12-07T08:07:14;2.80;99.90
13606;DHT22;6874;52.084;5.090;2022-12-07T08:09:39;2.80;99.90
13606;DHT22;6874;52.084;5.090;2022-12-07T08:12:05;2.80;99.90
13606;DHT22;6874;52.084;5.090;2022-12-07T08:14:31;2.80;99.90
13606;DHT22;6874;52.084;5.090;2022-12-07T08:16:57;2.70;99.90
13606;DHT22;6874;52.084;5.090;2022-12-07T08:19:23;2.70;99.90
13606;DHT22;6874;52.084;5.090;2022-12-07T08:21:49;2.70;99.90
13606;DHT22;6874;52.084;5.090;2022-12-07T08:24:14;2.70;99.90
13606;DHT22;6874;52.084;5.090;2022-12-07T08:26:41;2.70;99.90
13606;DHT22;6874;52.084;5.090;2022-12-07T08:29:06;2.70;99.90
13606;DHT22;6874;52.084;5.090;2022-12-07T08:31:32;2.70;99.90
13606;DHT22;6874;52.084;5.090;2022-12-07T08:33:58;2.70;99.90
13606;DHT22;6874;52.084;5.090;2022-12-07T08:36:23;2.70;99.90
13606;DHT22;6874;52.084;5.090;2022-12-07T08:38:49;2.70;99.90
13606;DHT22;6874;52.084;5.090;2022-12-07T08:41:15;2.70;99.90
13606;DHT22;6874;52.084;5.090;2022-12-07T08:43:41;2.70;99.90
13606;DHT22;6874;52.084;5.090;2022-12-07T08:48:41;2.70;99.90
13606;DHT22;6874;52.084;5.090;2022-12-07T08:51:08;2.70;99.90
13606;DHT22;6874;52.084;5.090;2022-12-07T08:53:35;2.70;99.90
13606;DHT22;6874;52.084;5.090;2022-12-07T08:56:02;2.80;99.90
13606;DHT22;6874;52.084;5.090;2022-12-07T08:58:27;2.80;99.90
13606;DHT22;6874;52.084;5.090;2022-12-07T09:00:53;2.80;99.90
13606;DHT22;6874;52.084;5.090;2022-12-07T09:03:18;2.80;99.90
13606;DHT22;6874;52.084;5.090;2022-12-07T09:05:44;2.80;99.90
13606;DHT22;6874;52.084;5.090;2022-12-07T09:08:10;2.90;99.90
13606;DHT22;6874;52.084;5.090;2022-12-07T09:10:35;2.90;99.90
13606;DHT22;6874;52.084;5.090;2022-12-07T09:13:01;2.90;99.90
13606;DHT22;6874;52.084;5.090;2022-12-07T09:15:28;2.90;99.90
13606;DHT22;6874;52.084;5.090;2022-12-07T09:17:54;2.90;99.90
13606;DHT22;6874;52.084;5.090;2022-12-07T09:20:19;3.00;99.90
13606;DHT22;6874;52.084;5.090;2022-12-07T09:22:45;3.00;99.90
13606;DHT22;6874;52.084;5.090;2022-12-07T09:25:11;3.00;99.90
13606;DHT22;6874;52.084;5.090;2022-12-07T09:27:37;3.00;99.90
13606;DHT22;6874;52.084;5.090;2022-12-07T09:30:04;3.10;99.90
13606;DHT22;6874;52.084;5.090;2022-12-07T09:32:29;3.10;99.90
13606;DHT22;6874;52.084;5.090;2022-12-07T09:34:55;3.10;99.90
13606;DHT22;6874;52.084;5.090;2022-12-07T09:37:21;3.10;99.90
13606;DHT22;6874;52.084;5.090;2022-12-07T09:39:47;3.10;99.90
13606;DHT22;6874;52.084;5.090;2022-12-07T09:42:31;3.20;99.90
13606;DHT22;6874;52.084;5.090;2022-12-07T09:44:59;3.20;99.90
13606;DHT22;6874;52.084;5.090;2022-12-07T09:47:26;3.20;99.90
13606;DHT22;6874;52.084;5.090;2022-12-07T09:49:55;3.20;99.90
13606;DHT22;6874;52.084;5.090;2022-12-07T09:52:28;3.20;99.90
13606;DHT22;6874;52.084;5.090;2022-12-07T09:54:54;3.30;99.90
13606;DHT22;6874;52.084;5.090;2022-12-07T09:57:31;3.30;99.90
13606;DHT22;6874;52.084;5.090;2022-12-07T10:00:01;3.30;99.90
13606;DHT22;6874;52.084;5.090;2022-12-07T10:02:44;3.30;99.90
13606;DHT22;6874;52.084;5.090;2022-12-07T10:05:27;3.40;99.90
13606;DHT22;6874;52.084;5.090;2022-12-07T10:07:54;3.40;99.90
13606;DHT22;6874;52.084;5.090;2022-12-07T10:10:30;3.40;99.90
13606;DHT22;6874;52.084;5.090;2022-12-07T10:13:01;3.40;99.90
13606;DHT22;6874;52.084;5.090;2022-12-07T10:15:50;3.40;99.90
13606;DHT22;6874;52.084;5.090;2022-12-07T10:21:18;3.50;99.90
13606;DHT22;6874;52.084;5.090;2022-12-07T10:24:03;3.50;99.90
13606;DHT22;6874;52.084;5.090;2022-12-07T10:26:38;3.50;99.90
13606;DHT22;6874;52.084;5.090;2022-12-07T10:29:18;3.60;99.90
13606;DHT22;6874;52.084;5.090;2022-12-07T10:31:47;3.60;99.90
13606;DHT22;6874;52.084;5.090;2022-12-07T10:34:30;3.60;99.90
13606;DHT22;6874;52.084;5.090;2022-12-07T10:42:19;3.70;99.90
13606;DHT22;6874;52.084;5.090;2022-12-07T10:44:45;3.70;99.90
13606;DHT22;6874;52.084;5.090;2022-12-07T10:47:34;3.70;99.90
13606;DHT22;6874;52.084;5.090;2022-12-07T10:56:17;3.80;99.90
13606;DHT22;6874;52.084;5.090;2022-12-07T11:04:33;3.90;99.90
13606;DHT22;6874;52.084;5.090;2022-12-07T11:17:52;4.00;99.90
13606;DHT22;6874;52.084;5.090;2022-12-07T11:20:39;4.10;99.90
13606;DHT22;6874;52.084;5.090;2022-12-07T11:23:24;4.10;99.90
13606;DHT22;6874;52.084;5.090;2022-12-07T11:28:46;4.20;99.90
13606;DHT22;6874;52.084;5.090;2022-12-07T11:34:33;4.20;99.90
13606;DHT22;6874;52.084;5.090;2022-12-07T11:36:54;4.20;99.90
13606;DHT22;6874;52.084;5.090;2022-12-07T11:39:35;4.30;99.90
13606;DHT22;6874;52.084;5.090;2022-12-07T11:42:06;4.30;99.90
13606;DHT22;6874;52.084;5.090;2022-12-07T11:47:17;4.40;99.90
13606;DHT22;6874;52.084;5.090;2022-12-07T11:52:43;4.40;99.90
13606;DHT22;6874;52.084;5.090;2022-12-07T11:55:24;4.40;99.90
13606;DHT22;6874;52.084;5.090;2022-12-07T11:58:00;4.50;99.90
13606;DHT22;6874;52.084;5.090;2022-12-07T12:00:28;4.50;99.90
13606;DHT22;6874;52.084;5.090;2022-12-07T12:03:01;4.50;99.90
13606;DHT22;6874;52.084;5.090;2022-12-07T12:05:28;4.50;99.90
13606;DHT22;6874;52.084;5.090;2022-12-07T12:08:27;4.50;99.90
13606;DHT22;6874;52.084;5.090;2022-12-07T12:14:17;4.50;99.90
13606;DHT22;6874;52.084;5.090;2022-12-07T12:22:20;4.50;99.90
13606;DHT22;6874;52.084;5.090;2022-12-07T12:24:50;4.50;99.90
13606;DHT22;6874;52.084;5.090;2022-12-07T12:27:32;4.50;99.90
13606;DHT22;6874;52.084;5.090;2022-12-07T12:30:00;4.50;99.90
13606;DHT22;6874;52.084;5.090;2022-12-07T12:32:42;4.50;99.90
13606;DHT22;6874;52.084;5.090;2022-12-07T12:35:34;4.50;99.90
13606;DHT22;6874;52.084;5.090;2022-12-07T12:47:03;4.60;99.90
13606;DHT22;6874;52.084;5.090;2022-12-07T12:49:43;4.60;99.90
13606;DHT22;6874;52.084;5.090;2022-12-07T12:57:33;4.60;99.90
13606;DHT22;6874;52.084;5.090;2022-12-07T13:00:23;4.70;99.90
13606;DHT22;6874;52.084;5.090;2022-12-07T13:02:55;4.60;99.90
13606;DHT22;6874;52.084;5.090;2022-12-07T13:05:23;4.60;99.90
13606;DHT22;6874;52.084;5.090;2022-12-07T13:08:12;4.70;99.90
13606;DHT22;6874;52.084;5.090;2022-12-07T13:10:40;4.60;99.90
13606;DHT22;6874;52.084;5.090;2022-12-07T13:18:36;4.60;99.90
13606;DHT22;6874;52.084;5.090;2022-12-07T13:28:46;4.60;99.90
13606;DHT22;6874;52.084;5.090;2022-12-07T13:31:37;4.70;99.90
13606;DHT22;6874;52.084;5.090;2022-12-07T13:34:05;4.70;99.90
13606;DHT22;6874;52.084;5.090;2022-12-07T13:36:38;4.70;99.90
13606;DHT22;6874;52.084;5.090;2022-12-07T13:39:21;4.80;99.90
13606;DHT22;6874;52.084;5.090;2022-12-07T13:41:56;4.80;99.90
13606;DHT22;6874;52.084;5.090;2022-12-07T13:44:24;4.80;99.90
13606;DHT22;6874;52.084;5.090;2022-12-07T13:49:49;4.80;99.90
13606;DHT22;6874;52.084;5.090;2022-12-07T13:52:19;4.90;99.90
13606;DHT22;6874;52.084;5.090;2022-12-07T13:54:59;4.80;99.90
13606;DHT22;6874;52.084;5.090;2022-12-07T13:57:27;4.80;99.90
13606;DHT22;6874;52.084;5.090;2022-12-07T13:59:54;4.80;99.90
13606;DHT22;6874;52.084;5.090;2022-12-07T14:04:49;4.80;99.90
13606;DHT22;6874;52.084;5.090;2022-12-07T14:07:25;4.80;99.90
13606;DHT22;6874;52.084;5.090;2022-12-07T14:11:15;4.80;99.90
13606;DHT22;6874;52.084;5.090;2022-12-07T14:13:31;4.80;99.90
13606;DHT22;6874;52.084;5.090;2022-12-07T14:15:59;4.80;99.90
13606;DHT22;6874;52.084;5.090;2022-12-07T14:23:38;4.80;99.90
13606;DHT22;6874;52.084;5.090;2022-12-07T14:26:09;4.80;99.90
13606;DHT22;6874;52.084;5.090;2022-12-07T14:28:37;4.80;99.90
13606;DHT22;6874;52.084;5.090;2022-12-07T14:31:07;4.80;99.90
13606;DHT22;6874;52.084;5.090;2022-12-07T14:33:35;4.80;99.90
13606;DHT22;6874;52.084;5.090;2022-12-07T14:36:00;4.80;99.90
13606;DHT22;6874;52.084;5.090;2022-12-07T14:38:26;4.80;99.90
13606;DHT22;6874;52.084;5.090;2022-12-07T14:40:53;4.80;99.90
13606;DHT22;6874;52.084;5.090;2022-12-07T14:43:20;4.80;99.90
13606;DHT22;6874;52.084;5.090;2022-12-07T14:45:46;4.80;99.90
13606;DHT22;6874;52.084;5.090;2022-12-07T14:48:13;4.80;99.90
13606;DHT22;6874;52.084;5.090;2022-12-07T14:50:45;4.80;99.90
13606;DHT22;6874;52.084;5.090;2022-12-07T14:53:17;4.80;99.90
13606;DHT22;6874;52.084;5.090;2022-12-07T14:55:43;4.80;99.90
13606;DHT22;6874;52.084;5.090;2022-12-07T14:58:14;4.80;99.90
13606;DHT22;6874;52.084;5.090;2022-12-07T15:00:40;4.80;99.90
13606;DHT22;6874;52.084;5.090;2022-12-07T15:03:05;4.80;99.90
13606;DHT22;6874;52.084;5.090;2022-12-07T15:05:31;4.80;99.90
13606;DHT22;6874;52.084;5.090;2022-12-07T15:07:57;4.80;99.90
13606;DHT22;6874;52.084;5.090;2022-12-07T15:10:26;4.80;99.90
13606;DHT22;6874;52.084;5.090;2022-12-07T15:12:57;4.80;99.90
13606;DHT22;6874;52.084;5.090;2022-12-07T15:18:52;4.80;99.90
13606;DHT22;6874;52.084;5.090;2022-12-07T15:21:17;4.70;99.90
13606;DHT22;6874;52.084;5.090;2022-12-07T15:23:43;4.70;99.90
13606;DHT22;6874;52.084;5.090;2022-12-07T15:26:12;4.70;99.90
13606;DHT22;6874;52.084;5.090;2022-12-07T15:28:37;4.70;99.90
13606;DHT22;6874;52.084;5.090;2022-12-07T15:31:03;4.70;99.90
13606;DHT22;6874;52.084;5.090;2022-12-07T15:33:29;4.70;99.90
13606;DHT22;6874;52.084;5.090;2022-12-07T15:35:54;4.70;99.90
13606;DHT22;6874;52.084;5.090;2022-12-07T15:38:20;4.70;99.90
13606;DHT22;6874;52.084;5.090;2022-12-07T15:40:48;4.70;99.90
13606;DHT22;6874;52.084;5.090;2022-12-07T15:43:14;4.70;99.90
13606;DHT22;6874;52.084;5.090;2022-12-07T15:45:58;4.70;99.90
13606;DHT22;6874;52.084;5.090;2022-12-07T15:48:24;4.70;99.90
13606;DHT22;6874;52.084;5.090;2022-12-07T15:50:50;4.70;99.90
13606;DHT22;6874;52.084;5.090;2022-12-07T15:53:16;4.70;99.90
13606;DHT22;6874;52.084;5.090;2022-12-07T15:55:42;4.70;99.90
13606;DHT22;6874;52.084;5.090;2022-12-07T15:58:07;4.70;99.90
13606;DHT22;6874;52.084;5.090;2022-12-07T16:00:33;4.70;99.90
13606;DHT22;6874;52.084;5.090;2022-12-07T16:02:59;4.70;99.90
13606;DHT22;6874;52.084;5.090;2022-12-07T16:05:24;4.70;99.90
13606;DHT22;6874;52.084;5.090;2022-12-07T16:07:50;4.70;99.90
13606;DHT22;6874;52.084;5.090;2022-12-07T16:10:15;4.70;99.90
13606;DHT22;6874;52.084;5.090;2022-12-07T16:12:41;4.60;99.90
13606;DHT22;6874;52.084;5.090;2022-12-07T16:15:07;4.60;99.90
13606;DHT22;6874;52.084;5.090;2022-12-07T16:17:33;4.60;99.90
13606;DHT22;6874;52.084;5.090;2022-12-07T16:19:58;4.60;99.90
13606;DHT22;6874;52.084;5.090;2022-12-07T16:22:24;4.60;99.90
13606;DHT22;6874;52.084;5.090;2022-12-07T16:24:49;4.60;99.90
13606;DHT22;6874;52.084;5.090;2022-12-07T16:27:15;4.60;99.90
13606;DHT22;6874;52.084;5.090;2022-12-07T16:29:40;4.50;99.90
13606;DHT22;6874;52.084;5.090;2022-12-07T16:32:06;4.60;99.90
13606;DHT22;6874;52.084;5.090;2022-12-07T16:34:32;4.50;99.90
13606;DHT22;6874;52.084;5.090;2022-12-07T16:36:57;4.50;99.90
13606;DHT22;6874;52.084;5.090;2022-12-07T16:39:23;4.50;99.90
13606;DHT22;6874;52.084;5.090;2022-12-07T16:41:55;4.50;99.90
13606;DHT22;6874;52.084;5.090;2022-12-07T16:44:26;4.50;99.90
13606;DHT22;6874;52.084;5.090;2022-12-07T16:46:52;4.50;99.90
13606;DHT22;6874;52.084;5.090;2022-12-07T16:49:17;4.50;99.90
13606;DHT22;6874;52.084;5.090;2022-12-07T16:51:44;4.50;99.90
13606;DHT22;6874;52.084;5.090;2022-12-07T16:54:11;4.50;99.90
13606;DHT22;6874;52.084;5.090;2022-12-07T16:56:37;4.40;99.90
13606;DHT22;6874;52.084;5.090;2022-12-07T16:59:03;4.40;99.90
13606;DHT22;6874;52.084;5.090;2022-12-07T17:01:29;4.40;99.90
13606;DHT22;6874;52.084;5.090;2022-12-07T17:03:56;4.40;99.90
13606;DHT22;6874;52.084;5.090;2022-12-07T17:06:24;4.40;99.90
13606;DHT22;6874;52.084;5.090;2022-12-07T17:08:51;4.40;99.90
13606;DHT22;6874;52.084;5.090;2022-12-07T17:11:19;4.40;99.90
13606;DHT22;6874;52.084;5.090;2022-12-07T17:13:45;4.40;99.90
13606;DHT22;6874;52.084;5.090;2022-12-07T17:16:30;4.40;99.90
13606;DHT22;6874;52.084;5.090;2022-12-07T17:18:56;4.40;99.90
13606;DHT22;6874;52.084;5.090;2022-12-07T17:21:22;4.40;99.90
13606;DHT22;6874;52.084;5.090;2022-12-07T17:23:48;4.30;99.90
13606;DHT22;6874;52.084;5.090;2022-12-07T17:26:20;4.40;99.90
13606;DHT22;6874;52.084;5.090;2022-12-07T17:28:46;4.30;99.90
13606;DHT22;6874;52.084;5.090;2022-12-07T17:31:14;4.30;99.90
13606;DHT22;6874;52.084;5.090;2022-12-07T17:33:39;4.30;99.90
13606;DHT22;6874;52.084;5.090;2022-12-07T17:36:20;4.30;99.90
13606;DHT22;6874;52.084;5.090;2022-12-07T17:38:47;4.30;99.90
13606;DHT22;6874;52.084;5.090;2022-12-07T17:41:21;4.30;99.90
13606;DHT22;6874;52.084;5.090;2022-12-07T17:44:08;4.30;99.90
13606;DHT22;6874;52.084;5.090;2022-12-07T17:46:35;4.30;99.90
13606;DHT22;6874;52.084;5.090;2022-12-07T17:49:01;4.20;99.90
13606;DHT22;6874;52.084;5.090;2022-12-07T17:51:27;4.30;99.90
13606;DHT22;6874;52.084;5.090;2022-12-07T17:54:12;4.20;99.90
13606;DHT22;6874;52.084;5.090;2022-12-07T17:56:37;4.20;99.90
13606;DHT22;6874;52.084;5.090;2022-12-07T17:59:03;4.20;99.90
13606;DHT22;6874;52.084;5.090;2022-12-07T18:01:29;4.20;99.90
13606;DHT22;6874;52.084;5.090;2022-12-07T18:03:54;4.20;99.90
13606;DHT22;6874;52.084;5.090;2022-12-07T18:06:20;4.20;99.90
13606;DHT22;6874;52.084;5.090;2022-12-07T18:08:46;4.20;99.90
13606;DHT22;6874;52.084;5.090;2022-12-07T18:11:11;4.20;99.90
13606;DHT22;6874;52.084;5.090;2022-12-07T18:13:37;4.20;99.90